Time;durP1;ratioP1;P1;durP2;ratioP2;P2;SDS_P1;SDS_P2;PMS_P1;PMS_P2;Temp;Humidity;BMP_temperature;BMP_pressure;BME280_temperature;BME280_humidity;BME280_pressure;Samples;Min_cycle;Max_cycle;Signal;HPM_P1;HPM_P2
2022/08/11 00:03:40;;;;;;;9.23;3.58;;;;;;;-147.53;100.00;57128.34;10252631;28;20047;-81
2022/08/11 00:08:49;;;;;;;8.23;3.78;;;;;;;-147.53;100.00;57128.34;10234532;28;20217;-81
2022/08/11 00:13:51;;;;;;;8.02;3.92;;;;;;;-147.53;100.00;57128.34;10244631;28;20047;-82
2022/08/11 00:18:55;;;;;;;7.53;3.10;;;;;;;-147.53;100.00;57128.34;10243588;28;20054;-81
2022/08/11 00:24:01;;;;;;;6.05;3.30;;;;;;;-147.53;100.00;57128.34;10257006;28;20055;-80
2022/08/11 00:29:10;;;;;;;7.43;3.65;;;;;;;-147.53;100.00;57128.34;10247543;28;20109;-80
2022/08/11 00:34:15;;;;;;;8.55;4.32;;;;;;;-147.53;100.00;57128.34;10228546;28;20114;-82
2022/08/11 00:39:21;;;;;;;7.32;3.95;;;;;;;-147.53;100.00;57128.34;10247841;28;20553;-81
2022/08/11 00:45:00;;;;;;;7.45;3.75;;;;;;;-147.53;100.00;57128.34;10252408;28;20047;-81
2022/08/11 00:50:05;;;;;;;8.85;4.53;;;;;;;-147.53;100.00;57128.34;10246653;28;20308;-81
2022/08/11 00:55:47;;;;;;;10.45;5.32;;;;;;;-147.53;100.00;57128.34;10243319;28;20055;-81
2022/08/11 01:01:14;;;;;;;8.60;4.13;;;;;;;-147.53;100.00;57128.34;10212005;29;20056;-81
2022/08/11 01:06:16;;;;;;;;;;;;;;;-147.53;100.00;57128.34;10212320;28;20687;-81
2022/08/11 01:11:20;;;;;;;9.32;4.28;;;;;;;-147.53;100.00;57128.34;10295956;28;19933;-81
2022/08/11 01:16:50;;;;;;;8.23;4.55;;;;;;;-147.53;100.00;57128.34;10273280;28;20039;-81
2022/08/11 01:22:29;;;;;;;9.80;4.25;;;;;;;-147.53;100.00;57128.34;10293223;28;20426;-81
2022/08/11 01:27:52;;;;;;;9.15;3.90;;;;;;;-147.53;100.00;57128.34;10262838;28;20598;-82
2022/08/11 01:33:22;;;;;;;7.80;3.67;;;;;;;-147.53;100.00;57128.34;10293056;28;20051;-82
2022/08/11 01:38:41;;;;;;;7.87;4.40;;;;;;;-147.53;100.00;57128.34;10277615;28;20122;-81
2022/08/11 01:49:25;;;;;;;9.15;3.97;;;;;;;-147.53;100.00;57128.34;10281503;28;19929;-82
2022/08/11 01:55:31;;;;;;;9.95;5.07;;;;;;;-147.53;100.00;57128.34;10295719;28;20117;-82
2022/08/11 02:00:47;;;;;;;8.35;5.15;;;;;;;-147.53;100.00;57128.34;10286636;28;20053;-82
2022/08/11 02:06:53;;;;;;;11.88;6.07;;;;;;;-147.53;100.00;57128.34;10289515;28;20526;-82
2022/08/11 02:11:34;;;;;;;10.52;5.90;;;;;;;-147.53;100.00;57128.34;10290669;28;20076;-82
2022/08/11 02:16:57;;;;;;;9.85;6.65;;;;;;;-147.53;100.00;57128.34;10258415;28;20049;-82
2022/08/11 02:27:39;;;;;;;19.23;7.03;;;;;;;-147.53;100.00;57128.34;10271865;28;20110;-81
2022/08/11 02:38:46;;;;;;;11.13;5.85;;;;;;;-147.53;100.00;57128.34;10291429;28;20042;-82
2022/08/11 02:44:03;;;;;;;8.65;5.90;;;;;;;-147.53;100.00;57128.34;10288812;28;20058;-82
2022/08/11 02:55:34;;;;;;;11.35;5.68;;;;;;;-147.53;100.00;57128.34;10288609;28;20086;-82
2022/08/11 03:01:17;;;;;;;10.43;5.97;;;;;;;-147.53;100.00;57128.34;10279939;28;20077;-82
2022/08/11 03:06:25;;;;;;;13.80;5.05;;;;;;;-147.53;100.00;57128.34;10295001;28;20422;-82
2022/08/11 03:17:29;;;;;;;11.18;5.47;;;;;;;-147.53;100.00;57128.34;10257538;28;20629;-82
2022/08/11 03:22:55;;;;;;;9.43;5.15;;;;;;;-147.53;100.00;57128.34;10281197;28;20051;-82
2022/08/11 03:28:08;;;;;;;9.95;5.22;;;;;;;-147.53;100.00;57128.34;10274282;28;20537;-82
2022/08/11 03:39:25;;;;;;;10.05;5.43;;;;;;;-147.53;100.00;57128.34;10285317;28;20046;-83
2022/08/11 03:44:36;;;;;;;11.97;5.27;;;;;;;-147.53;100.00;57128.34;10241707;28;20703;-82
2022/08/11 03:50:23;;;;;;;10.38;5.68;;;;;;;-147.53;100.00;57128.34;10287697;28;20150;-82
2022/08/11 03:55:54;;;;;;;9.52;5.57;;;;;;;-147.53;100.00;57128.34;10265124;28;20069;-83
2022/08/11 04:00:58;;;;;;;;;;;;;;;-147.53;100.00;57128.34;10274310;28;20562;-82
2022/08/11 04:06:21;;;;;;;12.15;5.10;;;;;;;-147.53;100.00;57128.34;10258713;28;19985;-82
2022/08/11 04:11:48;;;;;;;10.43;5.68;;;;;;;-147.53;100.00;57128.34;10289033;28;20128;-82
2022/08/11 04:17:27;;;;;;;9.95;4.95;;;;;;;-147.53;100.00;57128.34;10272699;28;20050;-82
2022/08/11 04:22:54;;;;;;;10.70;5.82;;;;;;;-147.53;100.00;57128.34;10262436;28;20061;-83
2022/08/11 04:28:07;;;;;;;8.45;5.50;;;;;;;-147.53;100.00;57128.34;10263931;28;20533;-83
2022/08/11 04:33:52;;;;;;;11.43;6.93;;;;;;;-147.53;100.00;57128.34;10275909;28;20065;-83
2022/08/11 04:39:28;;;;;;;16.05;7.50;;;;;;;-147.53;100.00;57128.34;10264288;28;20046;-82
2022/08/11 04:45:09;;;;;;;18.60;7.28;;;;;;;-147.53;100.00;57128.34;10284119;28;20471;-83
2022/08/11 05:01:40;;;;;;;14.20;7.63;;;;;;;-147.53;100.00;57128.34;10282994;28;20581;-81
2022/08/11 05:07:06;;;;;;;12.77;6.43;;;;;;;-147.53;100.00;57128.34;10260825;28;20042;-81
2022/08/11 05:12:35;;;;;;;22.15;6.03;;;;;;;-147.53;100.00;57128.34;10290497;28;20054;-82
2022/08/11 05:56:18;;;;;;;13.65;4.72;;;;;;;-147.53;100.00;57128.34;10280742;28;20182;-83
2022/08/11 06:01:23;;;;;;;10.70;4.60;;;;;;;-147.53;100.00;57128.34;10288688;28;20117;-83
2022/08/11 06:06:26;;;;;;;14.85;5.05;;;;;;;-147.53;100.00;57128.34;10289949;28;20125;-83
2022/08/11 06:11:28;;;;;;;11.43;4.80;;;;;;;-147.53;100.00;57128.34;10281909;28;20074;-83
2022/08/11 06:16:48;;;;;;;8.48;4.32;;;;;;;-147.53;100.00;57128.34;10280717;28;20392;-83
2022/08/11 06:21:51;;;;;;;10.50;4.70;;;;;;;-147.53;100.00;57128.34;10285702;28;20125;-83
2022/08/11 06:26:54;;;;;;;10.70;4.25;;;;;;;-147.53;100.00;57128.34;10266185;28;20070;-83
2022/08/11 06:32:14;;;;;;;9.18;4.53;;;;;;;-147.53;100.00;57128.34;10290050;28;20054;-81
2022/08/11 06:37:43;;;;;;;9.90;5.03;;;;;;;-147.53;100.00;57128.34;10285144;28;20563;-79
2022/08/11 06:42:53;;;;;;;8.87;4.80;;;;;;;-147.53;100.00;57128.34;10269999;28;20058;-80
2022/08/11 06:47:59;;;;;;;11.13;4.45;;;;;;;-147.53;100.00;57128.34;10276555;28;20105;-80
2022/08/11 06:53:04;;;;;;;11.27;4.25;;;;;;;-147.53;100.00;57128.34;10253434;28;20417;-79
2022/08/11 07:03:36;;;;;;;7.15;3.40;;;;;;;-147.53;100.00;57128.34;10290180;28;20066;-80
2022/08/11 07:30:40;;;;;;;11.80;2.85;;;;;;;-147.53;100.00;57128.34;10282205;28;20045;-79
2022/08/11 07:35:47;;;;;;;8.77;2.97;;;;;;;-147.53;100.00;57128.34;10278219;28;20042;-78
2022/08/11 07:40:49;;;;;;;7.78;2.88;;;;;;;-147.53;100.00;57128.34;10282349;28;20051;-80
2022/08/11 07:56:38;;;;;;;5.90;2.70;;;;;;;-147.53;100.00;57128.34;10279989;28;20447;-79
2022/08/11 08:18:04;;;;;;;4.50;2.13;;;;;;;-147.53;100.00;57128.34;10274680;28;20038;-79
2022/08/11 08:23:32;;;;;;;4.65;2.00;;;;;;;-147.53;100.00;57128.34;10281799;28;20545;-79
2022/08/11 08:28:35;;;;;;;10.00;2.00;;;;;;;-147.53;100.00;57128.34;10276197;28;20039;-78
2022/08/11 08:33:40;;;;;;;5.50;2.05;;;;;;;-147.53;100.00;57128.34;10258500;28;20050;-78
2022/08/11 08:38:48;;;;;;;5.75;2.10;;;;;;;-147.53;100.00;57128.34;10280981;28;20039;-80
2022/08/11 08:43:54;;;;;;;6.03;2.00;;;;;;;-147.53;100.00;57128.34;10259321;28;20074;-82
2022/08/11 08:49:01;;;;;;;4.60;1.98;;;;;;;-147.53;100.00;57128.34;10291683;28;20066;-81
2022/08/11 08:54:08;;;;;;;7.53;1.80;;;;;;;-147.53;100.00;57128.34;10278082;28;20134;-81
2022/08/11 08:59:12;;;;;;;3.30;1.30;;;;;;;-147.53;100.00;57128.34;10297932;28;20167;-81
2022/08/11 09:04:17;;;;;;;5.57;1.60;;;;;;;-147.53;100.00;57128.34;10297945;28;20058;-82
2022/08/11 09:09:22;;;;;;;4.30;1.80;;;;;;;-147.53;100.00;57128.34;10278638;28;20039;-81
2022/08/11 09:20:19;;;;;;;9.73;1.90;;;;;;;-147.53;100.00;57128.34;10259910;28;20031;-80
2022/08/11 09:30:52;;;;;;;5.10;1.33;;;;;;;-147.53;100.00;57128.34;10279466;28;20038;-82
2022/08/11 09:35:54;;;;;;;2.17;1.10;;;;;;;-147.53;100.00;57128.34;10260206;28;20396;-82
2022/08/11 09:40:58;;;;;;;2.03;1.00;;;;;;;-147.53;100.00;57128.34;10255223;28;20058;-82
2022/08/11 09:46:01;;;;;;;3.35;1.25;;;;;;;-147.53;100.00;57128.34;10274992;28;20554;-83
2022/08/11 09:51:04;;;;;;;4.25;1.30;;;;;;;-147.53;100.00;57128.34;10304758;28;20442;-82
2022/08/11 10:01:36;;;;;;;3.35;1.30;;;;;;;-147.53;100.00;57128.34;10304775;28;20050;-82
2022/08/11 10:12:01;;;;;;;3.13;1.20;;;;;;;-147.53;100.00;57128.34;10284472;28;20929;-79
2022/08/11 10:17:06;;;;;;;5.50;1.40;;;;;;;-147.53;100.00;57128.34;10267577;28;20503;-80
2022/08/11 10:27:34;;;;;;;3.88;1.42;;;;;;;-147.53;100.00;57128.34;10262654;28;20038;-81
2022/08/11 10:38:38;;;;;;;5.32;1.27;;;;;;;-147.53;100.00;57128.34;10271970;28;20541;-81
2022/08/11 10:43:40;;;;;;;2.60;1.30;;;;;;;-147.53;100.00;57128.34;10287073;28;20589;-81
2022/08/11 10:49:03;;;;;;;4.00;1.40;;;;;;;-147.53;100.00;57128.34;10255390;28;20083;-80
2022/08/11 10:59:29;;;;;;;4.18;1.42;;;;;;;-147.53;100.00;57128.34;10305102;28;20054;-80
2022/08/11 11:04:58;;;;;;;4.15;1.58;;;;;;;-147.53;100.00;57128.34;10285171;28;20416;-81
2022/08/11 11:10:03;;;;;;;4.18;1.27;;;;;;;-147.53;100.00;57128.34;10287950;28;20047;-81
2022/08/11 11:20:47;;;;;;;5.57;1.40;;;;;;;-147.53;100.00;57128.34;10305319;28;20059;-80
2022/08/11 11:26:18;;;;;;;3.95;1.60;;;;;;;-147.53;100.00;57128.34;10306304;28;20263;-82
2022/08/11 11:31:34;;;;;;;3.28;1.50;;;;;;;-147.53;100.00;57128.34;10299407;28;20089;-82
2022/08/11 11:36:58;;;;;;;5.43;1.55;;;;;;;-147.53;100.00;57128.34;10288620;28;20073;-81
2022/08/11 11:42:06;;;;;;;4.22;1.55;;;;;;;-147.53;100.00;57128.34;10284676;28;20050;-83
2022/08/11 11:47:11;;;;;;;3.72;1.60;;;;;;;-147.53;100.00;57128.34;10261414;28;20081;-80
2022/08/11 11:52:17;;;;;;;5.07;1.85;;;;;;;-147.53;100.00;57128.34;10288340;28;20050;-82
2022/08/11 12:02:42;;;;;;;3.92;1.65;;;;;;;-147.53;100.00;57128.34;10278057;28;20042;-81
2022/08/11 12:18:39;;;;;;;2.35;1.50;;;;;;;-147.53;100.00;57128.34;10303025;28;20050;-81
2022/08/11 12:29:08;;;;;;;4.10;1.45;;;;;;;-147.53;100.00;57128.34;10303897;28;20134;-81
2022/08/11 12:34:13;;;;;;;5.07;1.40;;;;;;;-147.53;100.00;57128.34;10303008;28;20047;-81
2022/08/11 12:45:26;;;;;;;6.10;1.40;;;;;;;-147.53;100.00;57128.34;10290836;28;20053;-80
2022/08/11 13:06:32;;;;;;;5.88;1.60;;;;;;;-147.53;100.00;57128.34;10298080;28;20046;-80
2022/08/11 13:22:23;;;;;;;3.67;1.13;;;;;;;-147.53;100.00;57128.34;10281535;28;20141;-80
2022/08/11 13:27:25;;;;;;;3.10;1.38;;;;;;;-147.53;100.00;57128.34;10284377;28;20441;-80
2022/08/11 13:32:27;;;;;;;3.13;1.20;;;;;;;-147.53;100.00;57128.34;10300102;28;20126;-80
2022/08/11 13:37:30;;;;;;;3.35;1.25;;;;;;;-147.53;100.00;57128.34;10300585;28;20038;-80
2022/08/11 13:42:52;;;;;;;2.95;1.33;;;;;;;-147.53;100.00;57128.34;10297681;28;20054;-78
2022/08/11 13:47:56;;;;;;;2.53;1.20;;;;;;;-147.53;100.00;57128.34;10276537;28;20110;-80
2022/08/11 13:52:58;;;;;;;3.65;1.50;;;;;;;-147.53;100.00;57128.34;10298772;28;20093;-80
2022/08/11 13:58:00;;;;;;;4.78;1.20;;;;;;;-147.53;100.00;57128.34;10289721;28;20042;-82
2022/08/11 14:03:24;;;;;;;2.38;1.15;;;;;;;-147.53;100.00;57128.34;10302486;28;20051;-80
2022/08/11 14:08:49;;;;;;;2.28;1.17;;;;;;;-147.53;100.00;57128.34;10292996;28;20035;-80
2022/08/11 14:13:52;;;;;;;1.95;0.95;;;;;;;-147.53;100.00;57128.34;10295167;28;20050;-80
2022/08/11 14:18:59;;;;;;;3.30;1.30;;;;;;;-147.53;100.00;57128.34;10278264;28;20043;-81
2022/08/11 14:24:03;;;;;;;2.53;1.50;;;;;;;-147.53;100.00;57128.34;10291142;28;20126;-80
2022/08/11 14:29:14;;;;;;;3.03;1.23;;;;;;;-147.53;100.00;57128.34;10299119;28;20051;-80
2022/08/11 14:34:23;;;;;;;2.65;1.00;;;;;;;-147.53;100.00;57128.34;10301483;28;20047;-81
2022/08/11 14:39:34;;;;;;;2.85;1.10;;;;;;;-147.53;100.00;57128.34;10303322;28;20038;-80
2022/08/11 14:49:59;;;;;;;3.13;1.30;;;;;;;-147.53;100.00;57128.34;10301034;28;20058;-80
2022/08/11 15:00:34;;;;;;;4.50;1.30;;;;;;;-147.53;100.00;57128.34;10294214;28;20568;-81
2022/08/11 15:05:49;;;;;;;6.88;1.80;;;;;;;-147.53;100.00;57128.34;10280649;28;20058;-80
2022/08/11 15:10:58;;;;;;;2.33;1.20;;;;;;;-147.53;100.00;57128.34;10299179;28;20038;-82
2022/08/11 15:37:30;;;;;;;3.22;1.45;;;;;;;-147.53;100.00;57128.34;10291143;28;20117;-79
2022/08/11 15:48:01;;;;;;;10.40;5.53;;;;;;;-147.53;100.00;57128.34;10256646;28;20396;-80
2022/08/11 15:53:37;;;;;;;3.47;1.85;;;;;;;-147.53;100.00;57128.34;10287360;28;20511;-83
2022/08/11 16:04:47;;;;;;;6.93;1.40;;;;;;;-147.53;100.00;57128.34;10273311;28;20047;-80
2022/08/11 16:10:07;;;;;;;7.45;1.42;;;;;;;-147.53;100.00;57128.34;10272211;28;20066;-80
2022/08/11 16:20:33;;;;;;;3.88;1.98;;;;;;;-147.53;100.00;57128.34;10275116;28;20125;-79
2022/08/11 16:25:36;;;;;;;2.55;1.40;;;;;;;-147.53;100.00;57128.34;10302377;28;20046;-81
2022/08/11 16:30:58;;;;;;;6.28;1.33;;;;;;;-147.53;100.00;57128.34;10308217;28;20062;-81
2022/08/11 16:52:02;;;;;;;5.55;1.30;;;;;;;-147.53;100.00;57128.34;10305631;28;20074;-81
2022/08/11 17:13:50;;;;;;;5.55;2.15;;;;;;;-147.53;100.00;57128.34;10306327;28;20579;-80
2022/08/11 17:19:17;;;;;;;9.27;2.53;;;;;;;-147.53;100.00;57128.34;10300934;28;20154;-79
2022/08/11 17:24:46;;;;;;;4.22;1.50;;;;;;;-147.53;100.00;57128.34;10276136;28;20065;-81
2022/08/11 17:29:53;;;;;;;5.43;1.50;;;;;;;-147.53;100.00;57128.34;10267633;28;20043;-80
2022/08/11 17:40:23;;;;;;;6.30;1.50;;;;;;;-147.53;100.00;57128.34;10261026;28;20158;-79
2022/08/11 17:50:48;;;;;;;3.55;1.40;;;;;;;-147.53;100.00;57128.34;10294936;28;20057;-84
2022/08/11 18:01:12;;;;;;;4.97;1.80;;;;;;;-147.53;100.00;57128.34;10285457;28;20051;-79
2022/08/11 18:06:17;;;;;;;5.35;1.50;;;;;;;-147.53;100.00;57128.34;10302178;28;20047;-79
